Schnellville, Indiana
Current Conditions -  °F | °C
As of 5:35 AM on Wednesday 26 Nov 2014 (Local Time) from KHNB Reporting Station
Few Clouds Few Clouds  
Wind Chill: 25°   Ceiling: Unl
Heat Index: 25°   Visibility: 6mi
Dew Point: 21°   Wind: 3mph
Humidity: 86%   Direction: 50°NE
Pressure: 30.14"   Gusts: NA
Location:  38.34°N, 86.76°W
Report Text: KHNB 261135Z AUTO 05003KT 6SM FEW018 M04/M06 A3014 RMK AO1
Loading
Personal Weather Stations






























Interactive Weather Map New forecast layout! Learn more

10-Day Weather Forecast

Advertisements
Track Severe Weather on mobile